sensor_id;sensor_type;location;lat;lon;timestamp;P1;durP1;ratioP1;P2;durP2;ratioP2
55090;SDS011;40985;53.180;5.800;2022-10-16T00:00:34;3.90;;;0.30;;
55090;SDS011;40985;53.180;5.800;2022-10-16T00:03:01;7.50;;;0.30;;
55090;SDS011;40985;53.180;5.800;2022-10-16T00:05:27;2.35;;;0.30;;
55090;SDS011;40985;53.180;5.800;2022-10-16T00:07:53;7.60;;;0.40;;
55090;SDS011;40985;53.180;5.800;2022-10-16T00:10:19;7.43;;;0.82;;
55090;SDS011;40985;53.180;5.800;2022-10-16T00:12:44;7.15;;;0.50;;
55090;SDS011;40985;53.180;5.800;2022-10-16T00:15:10;7.60;;;0.20;;
55090;SDS011;40985;53.180;5.800;2022-10-16T00:17:36;6.75;;;0.35;;
55090;SDS011;40985;53.180;5.800;2022-10-16T00:20:02;6.95;;;0.38;;
55090;SDS011;40985;53.180;5.800;2022-10-16T00:22:28;6.75;;;0.32;;
55090;SDS011;40985;53.180;5.800;2022-10-16T00:24:54;2.88;;;0.20;;
55090;SDS011;40985;53.180;5.800;2022-10-16T00:27:19;6.75;;;0.68;;
55090;SDS011;40985;53.180;5.800;2022-10-16T00:29:49;4.57;;;0.30;;
55090;SDS011;40985;53.180;5.800;2022-10-16T00:32:18;4.93;;;0.32;;
55090;SDS011;40985;53.180;5.800;2022-10-16T00:34:44;4.85;;;0.20;;
55090;SDS011;40985;53.180;5.800;2022-10-16T00:37:09;5.03;;;0.20;;
55090;SDS011;40985;53.180;5.800;2022-10-16T00:39:35;5.82;;;0.30;;
55090;SDS011;40985;53.180;5.800;2022-10-16T00:42:01;6.47;;;0.45;;
55090;SDS011;40985;53.180;5.800;2022-10-16T00:50:43;8.77;;;0.50;;
55090;SDS011;40985;53.180;5.800;2022-10-16T00:53:02;4.65;;;0.20;;
55090;SDS011;40985;53.180;5.800;2022-10-16T00:55:28;6.15;;;0.20;;
55090;SDS011;40985;53.180;5.800;2022-10-16T00:57:55;6.22;;;0.40;;
55090;SDS011;40985;53.180;5.800;2022-10-16T01:00:23;3.88;;;0.20;;
55090;SDS011;40985;53.180;5.800;2022-10-16T01:02:55;2.58;;;0.30;;
55090;SDS011;40985;53.180;5.800;2022-10-16T01:05:27;3.67;;;0.30;;
55090;SDS011;40985;53.180;5.800;2022-10-16T01:08:12;6.07;;;0.30;;
55090;SDS011;40985;53.180;5.800;2022-10-16T01:10:48;3.72;;;0.20;;
55090;SDS011;40985;53.180;5.800;2022-10-16T01:13:26;2.70;;;0.20;;
55090;SDS011;40985;53.180;5.800;2022-10-16T01:16:04;2.83;;;0.15;;
55090;SDS011;40985;53.180;5.800;2022-10-16T01:19:06;4.25;;;0.20;;
55090;SDS011;40985;53.180;5.800;2022-10-16T01:22:01;3.25;;;0.32;;
55090;SDS011;40985;53.180;5.800;2022-10-16T01:24:39;5.75;;;0.20;;
55090;SDS011;40985;53.180;5.800;2022-10-16T01:27:09;5.18;;;0.30;;
55090;SDS011;40985;53.180;5.800;2022-10-16T01:30:02;4.13;;;0.47;;
55090;SDS011;40985;53.180;5.800;2022-10-16T01:32:39;3.83;;;0.20;;
55090;SDS011;40985;53.180;5.800;2022-10-16T01:35:09;3.92;;;0.20;;
55090;SDS011;40985;53.180;5.800;2022-10-16T01:38:02;4.72;;;0.35;;
55090;SDS011;40985;53.180;5.800;2022-10-16T01:40:46;5.72;;;0.30;;
55090;SDS011;40985;53.180;5.800;2022-10-16T01:43:17;5.80;;;0.20;;
55090;SDS011;40985;53.180;5.800;2022-10-16T01:45:47;2.78;;;0.20;;
55090;SDS011;40985;53.180;5.800;2022-10-16T01:48:16;3.55;;;0.40;;
55090;SDS011;40985;53.180;5.800;2022-10-16T01:50:44;5.70;;;0.28;;
55090;SDS011;40985;53.180;5.800;2022-10-16T01:53:24;4.65;;;0.45;;
55090;SDS011;40985;53.180;5.800;2022-10-16T01:55:51;6.95;;;0.38;;
55090;SDS011;40985;53.180;5.800;2022-10-16T01:58:20;2.65;;;0.25;;
55090;SDS011;40985;53.180;5.800;2022-10-16T02:00:48;3.95;;;0.30;;
55090;SDS011;40985;53.180;5.800;2022-10-16T02:03:16;3.80;;;0.30;;
55090;SDS011;40985;53.180;5.800;2022-10-16T02:05:50;4.53;;;0.40;;
55090;SDS011;40985;53.180;5.800;2022-10-16T02:08:19;3.13;;;0.40;;
55090;SDS011;40985;53.180;5.800;2022-10-16T02:10:47;2.63;;;0.40;;
55090;SDS011;40985;53.180;5.800;2022-10-16T02:13:17;3.85;;;0.40;;
55090;SDS011;40985;53.180;5.800;2022-10-16T02:15:51;2.55;;;0.40;;
55090;SDS011;40985;53.180;5.800;2022-10-16T02:18:17;5.40;;;0.40;;
55090;SDS011;40985;53.180;5.800;2022-10-16T02:20:55;3.05;;;0.30;;
55090;SDS011;40985;53.180;5.800;2022-10-16T02:23:45;3.63;;;0.40;;
55090;SDS011;40985;53.180;5.800;2022-10-16T02:26:12;1.67;;;0.30;;
55090;SDS011;40985;53.180;5.800;2022-10-16T02:28:46;5.97;;;0.82;;
55090;SDS011;40985;53.180;5.800;2022-10-16T02:31:18;5.05;;;0.90;;
55090;SDS011;40985;53.180;5.800;2022-10-16T02:33:50;1.63;;;0.40;;
55090;SDS011;40985;53.180;5.800;2022-10-16T02:36:17;2.25;;;0.30;;
55090;SDS011;40985;53.180;5.800;2022-10-16T02:38:43;2.33;;;0.30;;
55090;SDS011;40985;53.180;5.800;2022-10-16T02:41:10;4.22;;;0.57;;
55090;SDS011;40985;53.180;5.800;2022-10-16T02:43:36;1.95;;;0.40;;
55090;SDS011;40985;53.180;5.800;2022-10-16T02:46:02;3.10;;;0.40;;
55090;SDS011;40985;53.180;5.800;2022-10-16T02:48:27;4.00;;;0.73;;
55090;SDS011;40985;53.180;5.800;2022-10-16T02:50:53;2.97;;;0.38;;
55090;SDS011;40985;53.180;5.800;2022-10-16T02:53:19;1.52;;;0.30;;
55090;SDS011;40985;53.180;5.800;2022-10-16T02:55:44;5.25;;;0.50;;
55090;SDS011;40985;53.180;5.800;2022-10-16T02:58:10;3.88;;;0.82;;
55090;SDS011;40985;53.180;5.800;2022-10-16T03:00:36;3.38;;;0.40;;
55090;SDS011;40985;53.180;5.800;2022-10-16T03:03:01;4.57;;;0.30;;
55090;SDS011;40985;53.180;5.800;2022-10-16T03:05:27;1.80;;;0.40;;
55090;SDS011;40985;53.180;5.800;2022-10-16T03:07:53;3.35;;;0.30;;
55090;SDS011;40985;53.180;5.800;2022-10-16T03:10:18;4.97;;;0.40;;
55090;SDS011;40985;53.180;5.800;2022-10-16T03:12:44;2.55;;;0.40;;
55090;SDS011;40985;53.180;5.800;2022-10-16T03:15:10;2.65;;;0.30;;
55090;SDS011;40985;53.180;5.800;2022-10-16T03:17:35;2.45;;;0.30;;
55090;SDS011;40985;53.180;5.800;2022-10-16T03:20:01;1.70;;;0.30;;
55090;SDS011;40985;53.180;5.800;2022-10-16T03:22:27;3.47;;;0.30;;
55090;SDS011;40985;53.180;5.800;2022-10-16T03:24:53;2.30;;;0.30;;
55090;SDS011;40985;53.180;5.800;2022-10-16T03:27:19;3.60;;;0.25;;
55090;SDS011;40985;53.180;5.800;2022-10-16T03:29:44;4.60;;;0.30;;
55090;SDS011;40985;53.180;5.800;2022-10-16T03:32:10;2.03;;;0.30;;
55090;SDS011;40985;53.180;5.800;2022-10-16T03:34:35;2.53;;;0.20;;
55090;SDS011;40985;53.180;5.800;2022-10-16T03:37:01;5.05;;;0.25;;
55090;SDS011;40985;53.180;5.800;2022-10-16T03:39:27;3.38;;;0.40;;
55090;SDS011;40985;53.180;5.800;2022-10-16T03:41:53;7.55;;;0.30;;
55090;SDS011;40985;53.180;5.800;2022-10-16T03:44:18;2.80;;;0.10;;
55090;SDS011;40985;53.180;5.800;2022-10-16T03:46:44;3.67;;;0.30;;
55090;SDS011;40985;53.180;5.800;2022-10-16T03:49:09;2.38;;;0.30;;
55090;SDS011;40985;53.180;5.800;2022-10-16T03:51:35;3.33;;;0.20;;
55090;SDS011;40985;53.180;5.800;2022-10-16T03:54:01;1.83;;;0.17;;
55090;SDS011;40985;53.180;5.800;2022-10-16T03:56:27;2.15;;;0.25;;
55090;SDS011;40985;53.180;5.800;2022-10-16T03:58:53;3.20;;;0.30;;
55090;SDS011;40985;53.180;5.800;2022-10-16T04:01:18;1.42;;;0.20;;
55090;SDS011;40985;53.180;5.800;2022-10-16T04:03:44;3.47;;;0.30;;
55090;SDS011;40985;53.180;5.800;2022-10-16T04:06:10;4.80;;;0.47;;
55090;SDS011;40985;53.180;5.800;2022-10-16T04:08:35;2.75;;;0.20;;
55090;SDS011;40985;53.180;5.800;2022-10-16T04:11:02;4.30;;;0.30;;
55090;SDS011;40985;53.180;5.800;2022-10-16T04:13:28;3.85;;;0.50;;
55090;SDS011;40985;53.180;5.800;2022-10-16T04:15:54;3.65;;;0.30;;
55090;SDS011;40985;53.180;5.800;2022-10-16T04:18:19;2.30;;;0.50;;
55090;SDS011;40985;53.180;5.800;2022-10-16T04:20:45;3.13;;;0.30;;
55090;SDS011;40985;53.180;5.800;2022-10-16T04:23:11;2.28;;;0.45;;
55090;SDS011;40985;53.180;5.800;2022-10-16T04:25:36;3.28;;;0.30;;
55090;SDS011;40985;53.180;5.800;2022-10-16T04:28:02;5.45;;;0.45;;
55090;SDS011;40985;53.180;5.800;2022-10-16T04:30:28;3.15;;;0.30;;
55090;SDS011;40985;53.180;5.800;2022-10-16T04:32:54;2.83;;;0.40;;
55090;SDS011;40985;53.180;5.800;2022-10-16T04:35:20;1.88;;;0.30;;
55090;SDS011;40985;53.180;5.800;2022-10-16T04:37:46;3.60;;;0.40;;
55090;SDS011;40985;53.180;5.800;2022-10-16T04:40:12;4.38;;;0.40;;
55090;SDS011;40985;53.180;5.800;2022-10-16T04:42:38;3.28;;;0.30;;
55090;SDS011;40985;53.180;5.800;2022-10-16T04:45:05;2.22;;;0.28;;
55090;SDS011;40985;53.180;5.800;2022-10-16T04:47:31;3.08;;;0.20;;
55090;SDS011;40985;53.180;5.800;2022-10-16T04:49:56;2.15;;;0.30;;
55090;SDS011;40985;53.180;5.800;2022-10-16T04:52:23;3.22;;;0.22;;
55090;SDS011;40985;53.180;5.800;2022-10-16T04:54:50;1.33;;;0.25;;
55090;SDS011;40985;53.180;5.800;2022-10-16T04:57:16;5.50;;;0.50;;
55090;SDS011;40985;53.180;5.800;2022-10-16T04:59:42;3.47;;;0.30;;
55090;SDS011;40985;53.180;5.800;2022-10-16T05:02:07;3.42;;;0.30;;
55090;SDS011;40985;53.180;5.800;2022-10-16T05:04:33;3.88;;;0.50;;
55090;SDS011;40985;53.180;5.800;2022-10-16T05:06:59;3.30;;;0.25;;
55090;SDS011;40985;53.180;5.800;2022-10-16T05:09:25;4.70;;;0.30;;
55090;SDS011;40985;53.180;5.800;2022-10-16T05:11:50;3.72;;;0.30;;
55090;SDS011;40985;53.180;5.800;2022-10-16T05:14:16;1.88;;;0.40;;
55090;SDS011;40985;53.180;5.800;2022-10-16T05:16:42;4.30;;;0.40;;
55090;SDS011;40985;53.180;5.800;2022-10-16T05:19:08;3.35;;;0.55;;
55090;SDS011;40985;53.180;5.800;2022-10-16T05:21:33;2.40;;;0.57;;
55090;SDS011;40985;53.180;5.800;2022-10-16T05:23:59;5.25;;;0.65;;
55090;SDS011;40985;53.180;5.800;2022-10-16T05:26:25;3.95;;;0.73;;
55090;SDS011;40985;53.180;5.800;2022-10-16T05:28:50;5.90;;;1.08;;
55090;SDS011;40985;53.180;5.800;2022-10-16T05:31:16;4.03;;;0.90;;
55090;SDS011;40985;53.180;5.800;2022-10-16T05:33:42;4.38;;;1.30;;
55090;SDS011;40985;53.180;5.800;2022-10-16T05:36:09;7.25;;;1.23;;
55090;SDS011;40985;53.180;5.800;2022-10-16T05:38:35;3.17;;;1.02;;
55090;SDS011;40985;53.180;5.800;2022-10-16T05:41:01;4.47;;;1.10;;
55090;SDS011;40985;53.180;5.800;2022-10-16T05:43:28;5.53;;;1.30;;
55090;SDS011;40985;53.180;5.800;2022-10-16T05:45:59;3.58;;;1.02;;
55090;SDS011;40985;53.180;5.800;2022-10-16T05:48:29;4.45;;;1.38;;
55090;SDS011;40985;53.180;5.800;2022-10-16T05:51:05;5.95;;;1.58;;
55090;SDS011;40985;53.180;5.800;2022-10-16T05:53:33;8.27;;;1.63;;
55090;SDS011;40985;53.180;5.800;2022-10-16T05:56:00;3.78;;;1.10;;
55090;SDS011;40985;53.180;5.800;2022-10-16T05:58:28;4.93;;;1.08;;
55090;SDS011;40985;53.180;5.800;2022-10-16T06:00:59;2.08;;;1.17;;
55090;SDS011;40985;53.180;5.800;2022-10-16T06:03:29;7.80;;;1.48;;
55090;SDS011;40985;53.180;5.800;2022-10-16T06:05:55;2.45;;;0.98;;
55090;SDS011;40985;53.180;5.800;2022-10-16T06:08:21;3.70;;;1.02;;
55090;SDS011;40985;53.180;5.800;2022-10-16T06:10:48;2.03;;;0.70;;
55090;SDS011;40985;53.180;5.800;2022-10-16T06:13:15;5.50;;;1.00;;
55090;SDS011;40985;53.180;5.800;2022-10-16T06:15:41;3.70;;;0.98;;
55090;SDS011;40985;53.180;5.800;2022-10-16T06:18:10;6.10;;;1.25;;
55090;SDS011;40985;53.180;5.800;2022-10-16T06:20:36;6.95;;;1.30;;
55090;SDS011;40985;53.180;5.800;2022-10-16T06:23:03;8.10;;;1.17;;
55090;SDS011;40985;53.180;5.800;2022-10-16T06:25:29;9.73;;;1.40;;
55090;SDS011;40985;53.180;5.800;2022-10-16T06:27:56;8.82;;;1.35;;
55090;SDS011;40985;53.180;5.800;2022-10-16T06:30:22;10.02;;;1.52;;
55090;SDS011;40985;53.180;5.800;2022-10-16T06:32:47;8.70;;;1.30;;
55090;SDS011;40985;53.180;5.800;2022-10-16T06:35:13;3.95;;;1.13;;
55090;SDS011;40985;53.180;5.800;2022-10-16T06:37:39;7.10;;;1.83;;
55090;SDS011;40985;53.180;5.800;2022-10-16T06:40:04;3.83;;;0.60;;
55090;SDS011;40985;53.180;5.800;2022-10-16T06:42:30;7.68;;;1.00;;
55090;SDS011;40985;53.180;5.800;2022-10-16T06:44:56;5.95;;;0.60;;
55090;SDS011;40985;53.180;5.800;2022-10-16T06:47:22;4.40;;;0.52;;
55090;SDS011;40985;53.180;5.800;2022-10-16T06:49:48;5.18;;;0.50;;
55090;SDS011;40985;53.180;5.800;2022-10-16T06:52:13;4.32;;;0.50;;
55090;SDS011;40985;53.180;5.800;2022-10-16T06:54:39;3.47;;;0.40;;
55090;SDS011;40985;53.180;5.800;2022-10-16T06:57:04;13.57;;;0.60;;
55090;SDS011;40985;53.180;5.800;2022-10-16T06:59:30;5.30;;;0.40;;
55090;SDS011;40985;53.180;5.800;2022-10-16T07:01:56;4.68;;;0.50;;
55090;SDS011;40985;53.180;5.800;2022-10-16T07:04:22;3.22;;;0.43;;
55090;SDS011;40985;53.180;5.800;2022-10-16T07:06:47;4.35;;;0.63;;
55090;SDS011;40985;53.180;5.800;2022-10-16T07:09:13;5.68;;;0.57;;
55090;SDS011;40985;53.180;5.800;2022-10-16T07:11:39;2.63;;;0.50;;
55090;SDS011;40985;53.180;5.800;2022-10-16T07:14:09;3.83;;;0.40;;
55090;SDS011;40985;53.180;5.800;2022-10-16T07:16:40;3.05;;;0.65;;
55090;SDS011;40985;53.180;5.800;2022-10-16T07:19:06;6.78;;;0.77;;
55090;SDS011;40985;53.180;5.800;2022-10-16T07:21:33;6.90;;;0.43;;
55090;SDS011;40985;53.180;5.800;2022-10-16T07:24:03;3.70;;;0.60;;
55090;SDS011;40985;53.180;5.800;2022-10-16T07:26:32;4.03;;;0.65;;
55090;SDS011;40985;53.180;5.800;2022-10-16T07:28:59;5.90;;;0.95;;
55090;SDS011;40985;53.180;5.800;2022-10-16T07:31:25;3.70;;;0.80;;
55090;SDS011;40985;53.180;5.800;2022-10-16T07:33:52;5.90;;;0.90;;
55090;SDS011;40985;53.180;5.800;2022-10-16T07:36:19;4.05;;;0.60;;
55090;SDS011;40985;53.180;5.800;2022-10-16T07:38:46;4.68;;;1.77;;
55090;SDS011;40985;53.180;5.800;2022-10-16T07:41:13;9.10;;;1.10;;
55090;SDS011;40985;53.180;5.800;2022-10-16T07:43:44;4.95;;;1.08;;
55090;SDS011;40985;53.180;5.800;2022-10-16T07:46:15;7.38;;;1.30;;
55090;SDS011;40985;53.180;5.800;2022-10-16T07:48:42;6.90;;;2.35;;
55090;SDS011;40985;53.180;5.800;2022-10-16T07:51:11;7.25;;;1.50;;
55090;SDS011;40985;53.180;5.800;2022-10-16T07:53:37;4.93;;;1.30;;
55090;SDS011;40985;53.180;5.800;2022-10-16T07:56:04;9.05;;;2.00;;
55090;SDS011;40985;53.180;5.800;2022-10-16T07:58:31;5.70;;;1.65;;
55090;SDS011;40985;53.180;5.800;2022-10-16T08:00:57;5.75;;;1.02;;
55090;SDS011;40985;53.180;5.800;2022-10-16T08:03:24;5.30;;;1.30;;
55090;SDS011;40985;53.180;5.800;2022-10-16T08:05:50;4.00;;;0.50;;
55090;SDS011;40985;53.180;5.800;2022-10-16T08:08:17;3.30;;;0.65;;
55090;SDS011;40985;53.180;5.800;2022-10-16T08:10:43;6.82;;;0.80;;
55090;SDS011;40985;53.180;5.800;2022-10-16T08:13:12;4.20;;;0.70;;
55090;SDS011;40985;53.180;5.800;2022-10-16T08:15:40;4.75;;;0.60;;
55090;SDS011;40985;53.180;5.800;2022-10-16T08:18:09;5.95;;;1.00;;
55090;SDS011;40985;53.180;5.800;2022-10-16T08:20:37;5.80;;;0.98;;
55090;SDS011;40985;53.180;5.800;2022-10-16T08:23:03;7.55;;;1.23;;
55090;SDS011;40985;53.180;5.800;2022-10-16T08:25:29;4.80;;;0.55;;
55090;SDS011;40985;53.180;5.800;2022-10-16T08:27:55;5.25;;;0.55;;
55090;SDS011;40985;53.180;5.800;2022-10-16T08:30:21;5.07;;;0.82;;
55090;SDS011;40985;53.180;5.800;2022-10-16T08:32:48;6.05;;;0.50;;
55090;SDS011;40985;53.180;5.800;2022-10-16T08:35:15;3.95;;;0.57;;
55090;SDS011;40985;53.180;5.800;2022-10-16T08:37:41;6.43;;;0.63;;
55090;SDS011;40985;53.180;5.800;2022-10-16T08:40:11;5.13;;;0.40;;
55090;SDS011;40985;53.180;5.800;2022-10-16T08:42:56;6.60;;;0.52;;
55090;SDS011;40985;53.180;5.800;2022-10-16T08:48:23;6.55;;;0.60;;
55090;SDS011;40985;53.180;5.800;2022-10-16T08:51:11;7.43;;;0.60;;
55090;SDS011;40985;53.180;5.800;2022-10-16T08:53:54;7.72;;;0.45;;
55090;SDS011;40985;53.180;5.800;2022-10-16T08:56:22;5.22;;;1.05;;
55090;SDS011;40985;53.180;5.800;2022-10-16T08:58:49;5.55;;;0.68;;
55090;SDS011;40985;53.180;5.800;2022-10-16T09:01:17;10.00;;;1.77;;
55090;SDS011;40985;53.180;5.800;2022-10-16T09:12:26;4.93;;;0.60;;
55090;SDS011;40985;53.180;5.800;2022-10-16T09:25:29;11.27;;;1.83;;
55090;SDS011;40985;53.180;5.800;2022-10-16T09:27:56;5.93;;;0.40;;
55090;SDS011;40985;53.180;5.800;2022-10-16T09:30:22;4.45;;;0.40;;
55090;SDS011;40985;53.180;5.800;2022-10-16T09:32:57;8.50;;;0.63;;
55090;SDS011;40985;53.180;5.800;2022-10-16T09:35:46;8.82;;;0.47;;
55090;SDS011;40985;53.180;5.800;2022-10-16T09:38:30;8.57;;;0.40;;
55090;SDS011;40985;53.180;5.800;2022-10-16T09:41:01;6.47;;;0.50;;
55090;SDS011;40985;53.180;5.800;2022-10-16T09:43:40;6.13;;;0.50;;
55090;SDS011;40985;53.180;5.800;2022-10-16T09:46:22;7.43;;;0.90;;
55090;SDS011;40985;53.180;5.800;2022-10-16T09:48:50;8.25;;;0.85;;
55090;SDS011;40985;53.180;5.800;2022-10-16T09:53:47;5.35;;;1.02;;
55090;SDS011;40985;53.180;5.800;2022-10-16T09:56:21;12.75;;;0.93;;
55090;SDS011;40985;53.180;5.800;2022-10-16T09:58:55;11.50;;;0.82;;
55090;SDS011;40985;53.180;5.800;2022-10-16T10:01:44;9.90;;;0.77;;
55090;SDS011;40985;53.180;5.800;2022-10-16T10:04:16;10.10;;;0.90;;
55090;SDS011;40985;53.180;5.800;2022-10-16T10:06:43;8.90;;;1.42;;
55090;SDS011;40985;53.180;5.800;2022-10-16T10:11:58;12.43;;;1.30;;
55090;SDS011;40985;53.180;5.800;2022-10-16T10:14:32;16.40;;;0.70;;
55090;SDS011;40985;53.180;5.800;2022-10-16T10:24:54;14.43;;;1.60;;
55090;SDS011;40985;53.180;5.800;2022-10-16T10:27:21;12.75;;;1.15;;
55090;SDS011;40985;53.180;5.800;2022-10-16T10:30:23;21.42;;;1.80;;
55090;SDS011;40985;53.180;5.800;2022-10-16T10:32:54;15.80;;;1.30;;
55090;SDS011;40985;53.180;5.800;2022-10-16T10:35:41;18.98;;;1.60;;
55090;SDS011;40985;53.180;5.800;2022-10-16T10:38:34;15.23;;;1.47;;
55090;SDS011;40985;53.180;5.800;2022-10-16T10:47:01;12.57;;;0.60;;
55090;SDS011;40985;53.180;5.800;2022-10-16T10:49:53;15.48;;;1.13;;
55090;SDS011;40985;53.180;5.800;2022-10-16T10:55:09;13.60;;;1.02;;
55090;SDS011;40985;53.180;5.800;2022-10-16T11:00:23;12.88;;;0.85;;
55090;SDS011;40985;53.180;5.800;2022-10-16T11:03:13;13.90;;;1.15;;
55090;SDS011;40985;53.180;5.800;2022-10-16T11:05:48;15.35;;;0.73;;
55090;SDS011;40985;53.180;5.800;2022-10-16T11:08:30;8.77;;;0.85;;
55090;SDS011;40985;53.180;5.800;2022-10-16T11:11:04;12.23;;;0.60;;
55090;SDS011;40985;53.180;5.800;2022-10-16T11:16:28;13.88;;;0.77;;
55090;SDS011;40985;53.180;5.800;2022-10-16T11:19:11;12.63;;;0.90;;
55090;SDS011;40985;53.180;5.800;2022-10-16T11:21:52;13.90;;;1.15;;
55090;SDS011;40985;53.180;5.800;2022-10-16T11:24:40;12.02;;;0.80;;
55090;SDS011;40985;53.180;5.800;2022-10-16T11:27:15;8.95;;;1.20;;
55090;SDS011;40985;53.180;5.800;2022-10-16T11:29:46;6.95;;;0.73;;
55090;SDS011;40985;53.180;5.800;2022-10-16T11:32:49;10.55;;;1.27;;
55090;SDS011;40985;53.180;5.800;2022-10-16T11:35:32;13.10;;;1.05;;
55090;SDS011;40985;53.180;5.800;2022-10-16T11:38:10;14.38;;;0.90;;
55090;SDS011;40985;53.180;5.800;2022-10-16T11:41:20;10.48;;;0.88;;
55090;SDS011;40985;53.180;5.800;2022-10-16T11:43:52;10.93;;;0.60;;
55090;SDS011;40985;53.180;5.800;2022-10-16T11:46:31;11.40;;;0.55;;
55090;SDS011;40985;53.180;5.800;2022-10-16T11:49:03;13.27;;;0.57;;
55090;SDS011;40985;53.180;5.800;2022-10-16T11:51:48;9.90;;;0.57;;
55090;SDS011;40985;53.180;5.800;2022-10-16T11:54:39;10.02;;;0.52;;
55090;SDS011;40985;53.180;5.800;2022-10-16T11:57:17;8.25;;;0.80;;
55090;SDS011;40985;53.180;5.800;2022-10-16T12:02:25;10.07;;;0.63;;
55090;SDS011;40985;53.180;5.800;2022-10-16T12:07:54;12.48;;;1.55;;
55090;SDS011;40985;53.180;5.800;2022-10-16T12:10:36;11.15;;;0.70;;
55090;SDS011;40985;53.180;5.800;2022-10-16T12:13:04;10.07;;;0.77;;
55090;SDS011;40985;53.180;5.800;2022-10-16T12:15:50;8.65;;;0.77;;
55090;SDS011;40985;53.180;5.800;2022-10-16T12:18:24;10.40;;;0.63;;
55090;SDS011;40985;53.180;5.800;2022-10-16T12:20:57;10.25;;;0.52;;
55090;SDS011;40985;53.180;5.800;2022-10-16T12:23:31;10.77;;;1.20;;
55090;SDS011;40985;53.180;5.800;2022-10-16T12:26:01;9.85;;;0.77;;
55090;SDS011;40985;53.180;5.800;2022-10-16T12:28:33;6.70;;;0.60;;
55090;SDS011;40985;53.180;5.800;2022-10-16T12:31:02;7.50;;;0.50;;
55090;SDS011;40985;53.180;5.800;2022-10-16T12:33:37;8.75;;;0.63;;
55090;SDS011;40985;53.180;5.800;2022-10-16T12:36:48;13.27;;;1.10;;
55090;SDS011;40985;53.180;5.800;2022-10-16T12:38:57;12.40;;;0.73;;
55090;SDS011;40985;53.180;5.800;2022-10-16T12:41:27;10.15;;;0.52;;
55090;SDS011;40985;53.180;5.800;2022-10-16T12:44:00;13.02;;;0.82;;
55090;SDS011;40985;53.180;5.800;2022-10-16T12:49:37;7.80;;;0.50;;
55090;SDS011;40985;53.180;5.800;2022-10-16T12:51:54;9.13;;;0.65;;
55090;SDS011;40985;53.180;5.800;2022-10-16T12:54:22;11.40;;;1.45;;
55090;SDS011;40985;53.180;5.800;2022-10-16T12:57:07;11.73;;;1.02;;
55090;SDS011;40985;53.180;5.800;2022-10-16T13:04:58;8.90;;;0.70;;
55090;SDS011;40985;53.180;5.800;2022-10-16T13:07:48;6.50;;;0.35;;
55090;SDS011;40985;53.180;5.800;2022-10-16T13:10:41;11.50;;;0.70;;
55090;SDS011;40985;53.180;5.800;2022-10-16T13:13:32;10.13;;;0.70;;
55090;SDS011;40985;53.180;5.800;2022-10-16T13:16:18;10.63;;;0.50;;
55090;SDS011;40985;53.180;5.800;2022-10-16T13:21:57;12.88;;;1.42;;
55090;SDS011;40985;53.180;5.800;2022-10-16T13:29:51;11.93;;;0.82;;
55090;SDS011;40985;53.180;5.800;2022-10-16T13:32:20;12.07;;;0.73;;
55090;SDS011;40985;53.180;5.800;2022-10-16T13:34:47;8.05;;;0.60;;
55090;SDS011;40985;53.180;5.800;2022-10-16T13:37:17;11.52;;;0.50;;
55090;SDS011;40985;53.180;5.800;2022-10-16T13:39:44;13.35;;;1.10;;
55090;SDS011;40985;53.180;5.800;2022-10-16T13:42:30;9.63;;;1.25;;
55090;SDS011;40985;53.180;5.800;2022-10-16T13:44:55;9.63;;;0.70;;
55090;SDS011;40985;53.180;5.800;2022-10-16T13:47:22;13.85;;;0.80;;
55090;SDS011;40985;53.180;5.800;2022-10-16T13:50:03;6.40;;;0.50;;
55090;SDS011;40985;53.180;5.800;2022-10-16T13:52:37;6.32;;;0.40;;
55090;SDS011;40985;53.180;5.800;2022-10-16T13:55:13;8.40;;;0.57;;
55090;SDS011;40985;53.180;5.800;2022-10-16T13:57:40;6.63;;;0.35;;
55090;SDS011;40985;53.180;5.800;2022-10-16T14:00:19;6.40;;;0.40;;
55090;SDS011;40985;53.180;5.800;2022-10-16T14:02:49;8.40;;;0.75;;
55090;SDS011;40985;53.180;5.800;2022-10-16T14:05:22;8.55;;;0.57;;
55090;SDS011;40985;53.180;5.800;2022-10-16T14:07:49;10.15;;;0.60;;
55090;SDS011;40985;53.180;5.800;2022-10-16T14:12:59;8.73;;;0.60;;
55090;SDS011;40985;53.180;5.800;2022-10-16T14:15:27;9.93;;;0.77;;
55090;SDS011;40985;53.180;5.800;2022-10-16T14:17:54;10.00;;;0.70;;
55090;SDS011;40985;53.180;5.800;2022-10-16T14:20:21;7.85;;;0.50;;
55090;SDS011;40985;53.180;5.800;2022-10-16T14:23:01;9.13;;;0.70;;
55090;SDS011;40985;53.180;5.800;2022-10-16T14:25:31;6.28;;;0.32;;
55090;SDS011;40985;53.180;5.800;2022-10-16T14:30:35;7.13;;;0.60;;
55090;SDS011;40985;53.180;5.800;2022-10-16T14:33:05;11.60;;;0.57;;
55090;SDS011;40985;53.180;5.800;2022-10-16T14:35:44;5.97;;;1.10;;
55090;SDS011;40985;53.180;5.800;2022-10-16T14:38:18;5.78;;;0.40;;
55090;SDS011;40985;53.180;5.800;2022-10-16T14:40:48;10.20;;;0.88;;
55090;SDS011;40985;53.180;5.800;2022-10-16T14:43:19;10.55;;;0.43;;
55090;SDS011;40985;53.180;5.800;2022-10-16T14:45:50;10.23;;;0.88;;
55090;SDS011;40985;53.180;5.800;2022-10-16T14:48:18;15.05;;;0.77;;
55090;SDS011;40985;53.180;5.800;2022-10-16T14:50:45;8.85;;;0.40;;
55090;SDS011;40985;53.180;5.800;2022-10-16T14:53:12;9.88;;;0.70;;
55090;SDS011;40985;53.180;5.800;2022-10-16T14:55:38;11.30;;;0.73;;
55090;SDS011;40985;53.180;5.800;2022-10-16T14:58:05;11.70;;;1.02;;
55090;SDS011;40985;53.180;5.800;2022-10-16T15:00:37;13.32;;;0.77;;
55090;SDS011;40985;53.180;5.800;2022-10-16T15:03:04;7.07;;;0.47;;
55090;SDS011;40985;53.180;5.800;2022-10-16T15:05:30;10.30;;;0.80;;
55090;SDS011;40985;53.180;5.800;2022-10-16T15:07:57;13.77;;;0.93;;
55090;SDS011;40985;53.180;5.800;2022-10-16T15:10:23;9.43;;;0.75;;
55090;SDS011;40985;53.180;5.800;2022-10-16T15:12:51;12.50;;;0.60;;
55090;SDS011;40985;53.180;5.800;2022-10-16T15:15:21;7.97;;;0.60;;
55090;SDS011;40985;53.180;5.800;2022-10-16T15:17:52;14.02;;;0.50;;
55090;SDS011;40985;53.180;5.800;2022-10-16T15:20:21;8.00;;;0.50;;
55090;SDS011;40985;53.180;5.800;2022-10-16T15:22:47;8.25;;;0.55;;
55090;SDS011;40985;53.180;5.800;2022-10-16T15:27:54;16.85;;;2.45;;
55090;SDS011;40985;53.180;5.800;2022-10-16T15:30:20;6.88;;;0.30;;
55090;SDS011;40985;53.180;5.800;2022-10-16T15:32:45;9.95;;;0.75;;
55090;SDS011;40985;53.180;5.800;2022-10-16T15:35:11;12.82;;;1.15;;
55090;SDS011;40985;53.180;5.800;2022-10-16T15:37:36;9.00;;;0.40;;
55090;SDS011;40985;53.180;5.800;2022-10-16T15:40:02;10.52;;;0.70;;
55090;SDS011;40985;53.180;5.800;2022-10-16T15:42:28;10.35;;;0.50;;
55090;SDS011;40985;53.180;5.800;2022-10-16T15:44:54;12.20;;;0.65;;
55090;SDS011;40985;53.180;5.800;2022-10-16T15:47:19;9.40;;;0.60;;
55090;SDS011;40985;53.180;5.800;2022-10-16T15:49:45;12.85;;;1.13;;
55090;SDS011;40985;53.180;5.800;2022-10-16T15:52:11;15.57;;;1.60;;
55090;SDS011;40985;53.180;5.800;2022-10-16T15:54:37;12.57;;;1.40;;
55090;SDS011;40985;53.180;5.800;2022-10-16T15:57:02;13.95;;;1.30;;
55090;SDS011;40985;53.180;5.800;2022-10-16T15:59:28;13.55;;;1.48;;
55090;SDS011;40985;53.180;5.800;2022-10-16T16:01:55;7.80;;;0.63;;
55090;SDS011;40985;53.180;5.800;2022-10-16T16:04:21;14.55;;;1.15;;
55090;SDS011;40985;53.180;5.800;2022-10-16T16:06:46;10.30;;;0.50;;
55090;SDS011;40985;53.180;5.800;2022-10-16T16:09:12;11.88;;;1.00;;
55090;SDS011;40985;53.180;5.800;2022-10-16T16:11:39;13.60;;;1.27;;
55090;SDS011;40985;53.180;5.800;2022-10-16T16:14:05;12.43;;;1.25;;
55090;SDS011;40985;53.180;5.800;2022-10-16T16:16:31;9.25;;;1.23;;
55090;SDS011;40985;53.180;5.800;2022-10-16T16:19:02;10.98;;;1.63;;
55090;SDS011;40985;53.180;5.800;2022-10-16T16:21:28;11.10;;;1.60;;
55090;SDS011;40985;53.180;5.800;2022-10-16T16:23:54;8.80;;;1.27;;
55090;SDS011;40985;53.180;5.800;2022-10-16T16:26:27;9.27;;;0.82;;
55090;SDS011;40985;53.180;5.800;2022-10-16T16:29:00;11.55;;;0.82;;